createdAt,value
2018-12-20T00:00:52.928Z,146.70
2018-12-20T00:02:59.845Z,155.83
2018-12-20T00:05:06.613Z,145.07
2018-12-20T00:07:13.238Z,134.53
2018-12-20T00:09:19.897Z,128.27
2018-12-20T00:11:26.606Z,119.57
2018-12-20T00:13:33.211Z,120.07
2018-12-20T00:15:40.033Z,111.07
2018-12-20T00:17:49.926Z,107.43
2018-12-20T00:19:56.819Z,109.37
2018-12-20T00:22:03.462Z,111.47
2018-12-20T00:24:10.081Z,102.07
2018-12-20T00:26:17.192Z,99.13
2018-12-20T00:28:23.891Z,102.03
2018-12-20T00:30:30.571Z,100.53
2018-12-20T00:32:37.401Z,103.03
2018-12-20T00:34:44.248Z,111.30
2018-12-20T00:36:51.098Z,88.43
2018-12-20T00:38:57.746Z,97.37
2018-12-20T00:41:05.032Z,109.45
2018-12-20T00:43:11.879Z,94.47
2018-12-20T00:45:18.500Z,91.60
2018-12-20T00:47:25.203Z,97.33
2018-12-20T00:49:31.637Z,98.10
2018-12-20T00:51:38.352Z,113.60
2018-12-20T00:53:44.951Z,115.17
2018-12-20T00:55:51.750Z,111.63
2018-12-20T00:57:58.358Z,166.53
2018-12-20T01:00:05.363Z,153.87
2018-12-20T01:02:12.110Z,160.20
2018-12-20T01:04:18.722Z,140.60
2018-12-20T01:06:25.568Z,133.43
2018-12-20T01:08:32.325Z,137.63
2018-12-20T01:10:39.065Z,131.70
2018-12-20T01:12:45.939Z,150.23
2018-12-20T01:14:52.302Z,142.63
2018-12-20T01:16:59.270Z,147.30
2018-12-20T01:19:05.923Z,198.27
2018-12-20T01:21:12.791Z,151.03
2018-12-20T01:23:19.543Z,159.53
2018-12-20T01:25:26.357Z,187.50
2018-12-20T01:27:32.922Z,177.80
2018-12-20T01:29:39.828Z,153.03
2018-12-20T01:31:46.644Z,180.07
2018-12-20T01:33:53.351Z,168.27
2018-12-20T01:36:00.546Z,154.20
2018-12-20T01:38:07.221Z,154.60
2018-12-20T01:40:13.947Z,155.67
2018-12-20T01:42:20.774Z,146.10
2018-12-20T01:44:27.473Z,163.83
2018-12-20T01:46:34.398Z,160.27
2018-12-20T01:48:40.801Z,189.47
2018-12-20T01:50:47.660Z,183.90
2018-12-20T01:52:54.099Z,195.00
2018-12-20T01:55:00.979Z,174.10
2018-12-20T01:57:07.617Z,180.87
2018-12-20T01:59:14.478Z,197.40
2018-12-20T02:01:21.378Z,180.60
2018-12-20T02:03:28.080Z,195.83
2018-12-20T02:05:34.967Z,197.43
2018-12-20T02:07:41.488Z,181.23
2018-12-20T02:09:48.311Z,177.13
2018-12-20T02:11:54.895Z,179.07
2018-12-20T02:14:01.598Z,162.87
2018-12-20T02:16:08.248Z,159.53
2018-12-20T02:18:15.106Z,171.30
2018-12-20T02:20:21.729Z,163.10
2018-12-20T02:22:29.023Z,160.33
2018-12-20T02:24:35.780Z,154.70
2018-12-20T02:26:42.842Z,167.20
2018-12-20T02:28:49.784Z,160.83
2018-12-20T02:30:56.548Z,149.17
2018-12-20T02:33:03.326Z,152.70
2018-12-20T02:35:10.351Z,150.97
2018-12-20T02:37:17.617Z,156.63
2018-12-20T02:39:24.083Z,153.27
2018-12-20T02:41:30.825Z,166.60
2018-12-20T02:43:37.617Z,157.83
2018-12-20T02:45:44.363Z,166.73
2018-12-20T02:47:51.275Z,187.97
2018-12-20T02:49:58.298Z,190.27
2018-12-20T02:52:05.233Z,163.47
2018-12-20T02:54:12.543Z,178.93
2018-12-20T02:56:19.460Z,179.83
2018-12-20T02:58:26.226Z,186.33
2018-12-20T03:00:32.987Z,180.60
2018-12-20T03:02:39.889Z,199.97
2018-12-20T03:04:46.790Z,182.17
2018-12-20T03:06:54.048Z,199.40
2018-12-20T03:09:00.899Z,196.77
2018-12-20T03:11:07.658Z,177.17
2018-12-20T03:13:14.429Z,163.40
2018-12-20T03:15:21.262Z,172.57
2018-12-20T03:17:27.693Z,175.93
2018-12-20T03:19:34.240Z,162.87
2018-12-20T03:21:40.809Z,163.47
2018-12-20T03:23:47.302Z,174.40
2018-12-20T03:25:54.255Z,161.17
2018-12-20T03:28:00.922Z,171.03
2018-12-20T03:30:07.571Z,167.90
2018-12-20T03:32:14.167Z,167.30
2018-12-20T03:34:20.800Z,166.50
2018-12-20T03:36:27.577Z,167.80
2018-12-20T03:38:34.639Z,172.90
2018-12-20T03:40:41.713Z,171.57
2018-12-20T03:42:48.202Z,199.83
2018-12-20T03:44:54.797Z,192.10
2018-12-20T03:47:01.614Z,197.03
2018-12-20T03:49:08.058Z,191.00
2018-12-20T03:51:14.492Z,207.33
2018-12-20T03:53:21.163Z,201.50
2018-12-20T03:55:27.874Z,213.70
2018-12-20T03:57:34.122Z,222.30
2018-12-20T03:59:40.292Z,228.87
2018-12-20T04:01:46.440Z,234.30
2018-12-20T04:03:52.678Z,224.30
2018-12-20T04:05:59.008Z,217.43
2018-12-20T04:08:05.814Z,219.67
2018-12-20T04:10:12.841Z,221.30
2018-12-20T04:12:19.721Z,196.47
2018-12-20T04:14:26.323Z,201.60
2018-12-20T04:16:33.144Z,183.63
2018-12-20T04:18:40.071Z,182.07
2018-12-20T04:20:47.390Z,183.10
2018-12-20T04:30:06.199Z,204.37
2018-12-20T04:32:13.287Z,194.30
2018-12-20T04:34:19.963Z,191.47
2018-12-20T04:36:26.863Z,204.20
2018-12-20T04:38:33.738Z,223.70
2018-12-20T04:40:40.456Z,217.33
2018-12-20T04:42:50.062Z,217.37
2018-12-20T04:45:18.128Z,213.47
2018-12-20T04:47:31.075Z,228.97
2018-12-20T04:49:43.347Z,229.53
2018-12-20T04:51:56.980Z,237.63
2018-12-20T04:54:09.781Z,251.83
2018-12-20T04:56:16.572Z,253.03
2018-12-20T04:58:23.614Z,237.03
2018-12-20T05:00:36.637Z,237.33
2018-12-20T05:02:50.773Z,245.03
2018-12-20T05:05:23.523Z,261.07
2018-12-20T05:07:31.255Z,254.60
2018-12-20T05:09:42.324Z,243.33
2018-12-20T05:11:52.408Z,253.27
2018-12-20T05:14:05.512Z,257.87
2018-12-20T05:16:12.863Z,241.47
2018-12-20T05:18:28.126Z,242.20
2018-12-20T05:20:39.178Z,237.73
2018-12-20T05:22:50.083Z,239.97
2018-12-20T05:25:03.092Z,215.60
2018-12-20T05:27:13.429Z,209.20
2018-12-20T05:29:24.429Z,248.33
2018-12-20T05:31:33.990Z,236.60
2018-12-20T05:33:45.222Z,229.00
2018-12-20T05:35:52.276Z,234.97
2018-12-20T05:38:00.795Z,244.33
2018-12-20T05:40:11.037Z,251.37
2018-12-20T05:42:21.230Z,245.00
2018-12-20T05:44:28.293Z,249.50
2018-12-20T05:46:35.142Z,245.80
2018-12-20T05:48:49.491Z,255.27
2018-12-20T05:51:02.238Z,242.87
2018-12-20T05:53:09.981Z,246.07
2018-12-20T05:55:22.834Z,253.37
2018-12-20T05:57:36.629Z,257.57
2018-12-20T05:59:48.818Z,258.97
2018-12-20T06:02:04.847Z,257.57
2018-12-20T06:04:40.528Z,259.87
2018-12-20T06:06:52.861Z,254.87
2018-12-20T06:09:06.376Z,266.20
2018-12-20T06:11:13.296Z,255.43
2018-12-20T06:13:20.033Z,276.53
2018-12-20T06:15:26.627Z,260.27
2018-12-20T06:17:33.330Z,255.93
2018-12-20T06:19:40.024Z,270.57
2018-12-20T06:21:46.648Z,249.47
2018-12-20T06:23:56.979Z,239.03
2018-12-20T06:26:10.753Z,237.03
2018-12-20T06:28:25.130Z,225.90
2018-12-20T06:30:36.750Z,242.67
2018-12-20T06:32:48.009Z,256.73
2018-12-20T06:34:58.359Z,238.77
2018-12-20T06:37:10.202Z,233.70
2018-12-20T06:39:21.613Z,241.30
2018-12-20T06:41:30.097Z,259.17
2018-12-20T06:43:40.348Z,247.10
2018-12-20T06:45:47.178Z,253.67
2018-12-20T06:47:53.902Z,244.60
2018-12-20T06:50:00.735Z,253.10
2018-12-20T06:52:07.593Z,267.17
2018-12-20T06:54:18.367Z,276.03
2018-12-20T06:56:24.962Z,267.77
2018-12-20T06:58:35.438Z,260.40
2018-12-20T07:00:46.929Z,263.47
2018-12-20T07:02:53.666Z,264.53
2018-12-20T07:05:00.270Z,284.30
2018-12-20T07:07:06.983Z,276.13
2018-12-20T07:09:13.754Z,277.20
2018-12-20T07:11:20.445Z,277.77
2018-12-20T07:13:27.058Z,290.90
2018-12-20T07:15:33.838Z,284.63
2018-12-20T07:17:40.318Z,270.13
2018-12-20T07:19:47.119Z,260.97
2018-12-20T07:21:53.803Z,255.70
2018-12-20T07:24:00.245Z,260.70
2018-12-20T07:26:06.947Z,249.90
2018-12-20T07:28:17.613Z,251.63
2018-12-20T07:30:28.852Z,248.67
2018-12-20T07:32:35.518Z,274.57
2018-12-20T07:34:47.846Z,273.63
2018-12-20T07:36:50.783Z,261.97
2018-12-20T07:38:57.386Z,267.50
2018-12-20T07:41:03.806Z,284.77
2018-12-20T07:43:10.578Z,277.80
2018-12-20T07:45:17.487Z,269.97
2018-12-20T07:47:24.959Z,267.27
2018-12-20T07:49:31.717Z,257.73
2018-12-20T07:51:38.650Z,251.43
2018-12-20T07:53:45.162Z,255.90
2018-12-20T07:55:51.795Z,238.80
2018-12-20T07:57:58.392Z,243.40
2018-12-20T08:00:05.282Z,235.20
2018-12-20T08:02:11.913Z,217.87
2018-12-20T08:04:18.362Z,209.27
2018-12-20T08:06:24.972Z,226.07
2018-12-20T08:08:31.502Z,222.27
2018-12-20T08:10:38.157Z,239.07
2018-12-20T08:12:45.053Z,240.57
2018-12-20T08:17:29.511Z,240.83
2018-12-20T08:19:36.658Z,269.40
2018-12-20T08:21:43.204Z,277.83
2018-12-20T08:23:50.048Z,265.00
2018-12-20T08:25:56.737Z,268.60
2018-12-20T08:28:03.637Z,277.90
2018-12-20T08:30:10.721Z,269.73
2018-12-20T08:32:17.371Z,284.83
2018-12-20T08:34:24.074Z,270.30
2018-12-20T08:36:30.613Z,271.53
2018-12-20T08:38:37.272Z,282.53
2018-12-20T08:40:43.998Z,287.17
2018-12-20T08:42:50.551Z,275.27
2018-12-20T08:44:57.194Z,277.73
2018-12-20T08:47:03.810Z,257.53
2018-12-20T08:49:10.338Z,267.77
2018-12-20T08:51:17.346Z,248.73
2018-12-20T08:53:24.384Z,269.83
2018-12-20T08:55:30.964Z,231.93
2018-12-20T08:57:37.411Z,247.20
2018-12-20T08:59:43.946Z,242.63
2018-12-20T09:01:50.778Z,240.40
2018-12-20T09:03:57.454Z,258.00
2018-12-20T09:06:04.093Z,257.63
2018-12-20T09:08:10.969Z,244.73
2018-12-20T09:10:17.662Z,242.13
2018-12-20T09:12:24.309Z,245.53
2018-12-20T09:14:30.955Z,234.27
2018-12-20T09:16:37.624Z,235.37
2018-12-20T09:18:44.195Z,243.27
2018-12-20T09:20:50.795Z,204.13
2018-12-20T09:22:57.284Z,234.93
2018-12-20T09:25:03.806Z,211.03
2018-12-20T09:27:10.466Z,225.93
2018-12-20T09:29:16.940Z,213.10
2018-12-20T09:31:23.414Z,229.30
2018-12-20T09:33:30.221Z,244.50
2018-12-20T09:35:36.830Z,246.93
2018-12-20T09:37:43.418Z,255.47
2018-12-20T09:39:50.249Z,263.10
2018-12-20T09:41:57.053Z,252.63
2018-12-20T09:44:03.726Z,277.87
2018-12-20T09:46:10.470Z,252.13
2018-12-20T09:48:17.352Z,266.60
2018-12-20T09:50:23.930Z,276.40
2018-12-20T09:52:31.012Z,267.00
2018-12-20T09:54:37.693Z,268.73
2018-12-20T09:56:44.291Z,279.43
2018-12-20T09:58:50.998Z,271.03
2018-12-20T10:00:57.560Z,289.87
2018-12-20T10:03:04.320Z,290.73
2018-12-20T10:05:11.012Z,279.33
2018-12-20T10:07:17.599Z,274.67
2018-12-20T10:09:24.091Z,267.77
2018-12-20T10:11:30.791Z,252.20
2018-12-20T10:13:37.466Z,255.10
2018-12-20T10:15:43.999Z,240.10
2018-12-20T10:17:50.884Z,275.07
2018-12-20T10:19:58.115Z,239.93
2018-12-20T10:22:04.779Z,252.70
2018-12-20T10:24:11.301Z,250.73
2018-12-20T10:26:18.001Z,245.93
2018-12-20T10:28:24.562Z,216.47
2018-12-20T10:30:31.274Z,221.77
2018-12-20T10:32:37.694Z,221.13
2018-12-20T10:34:44.463Z,227.47
2018-12-20T10:36:51.117Z,239.90
2018-12-20T10:38:58.066Z,203.80
2018-12-20T10:41:04.827Z,213.03
2018-12-20T10:43:11.817Z,237.60
2018-12-20T10:45:18.583Z,245.03
2018-12-20T10:47:29.138Z,251.90
2018-12-20T10:49:35.396Z,266.97
2018-12-20T10:51:42.046Z,272.37
2018-12-20T10:53:48.853Z,255.80
2018-12-20T10:55:55.619Z,256.73
2018-12-20T10:58:02.399Z,271.13
2018-12-20T11:00:10.106Z,266.83
2018-12-20T11:02:21.201Z,276.10
2018-12-20T11:04:32.390Z,282.53
2018-12-20T11:06:43.564Z,279.77
2018-12-20T11:08:54.949Z,278.80
2018-12-20T11:11:07.791Z,291.00
2018-12-20T11:13:18.877Z,283.10
2018-12-20T11:15:26.066Z,264.03
2018-12-20T11:17:37.381Z,262.70
2018-12-20T11:19:41.287Z,231.30
2018-12-20T11:21:47.995Z,236.57
2018-12-20T11:23:54.598Z,222.07
2018-12-20T11:26:01.165Z,246.03
2018-12-20T11:28:07.874Z,219.33
2018-12-20T11:30:14.874Z,217.17
2018-12-20T11:32:21.559Z,231.40
2018-12-20T11:34:27.953Z,248.70
2018-12-20T11:36:34.728Z,260.30
2018-12-20T11:38:41.374Z,258.10
2018-12-20T11:40:47.849Z,271.00
2018-12-20T11:42:54.385Z,284.80
2018-12-20T11:45:01.090Z,265.93
2018-12-20T11:47:12.067Z,274.27
2018-12-20T11:49:18.798Z,281.23
2018-12-20T11:51:25.255Z,276.10
2018-12-20T11:53:31.753Z,283.33
2018-12-20T11:55:38.426Z,275.17
2018-12-20T11:57:45.337Z,288.73
2018-12-20T11:59:52.167Z,273.67
2018-12-20T12:01:58.768Z,284.83
2018-12-20T12:04:05.306Z,296.40
2018-12-20T12:06:12.096Z,290.67
2018-12-20T12:08:18.809Z,301.60
2018-12-20T12:10:25.398Z,286.23
2018-12-20T12:12:31.883Z,295.40
2018-12-20T12:14:38.538Z,289.83
2018-12-20T12:16:45.020Z,293.77
2018-12-20T12:18:52.019Z,291.47
2018-12-20T12:20:58.630Z,279.47
2018-12-20T12:23:05.065Z,262.47
2018-12-20T12:25:12.800Z,234.97
2018-12-20T12:27:19.458Z,247.17
2018-12-20T12:29:26.165Z,249.97
2018-12-20T12:31:32.819Z,210.30
2018-12-20T12:33:39.616Z,221.00
2018-12-20T12:35:46.710Z,238.73
2018-12-20T12:37:53.357Z,214.60
2018-12-20T12:40:00.054Z,203.13
2018-12-20T12:42:06.570Z,225.87
2018-12-20T12:44:13.075Z,240.53
2018-12-20T12:46:19.865Z,199.10
2018-12-20T12:48:26.329Z,205.63
2018-12-20T12:50:32.427Z,186.23
2018-12-20T12:52:38.980Z,199.07
2018-12-20T12:54:45.562Z,209.00
2018-12-20T12:56:52.237Z,198.47
2018-12-20T12:58:59.274Z,186.00
2018-12-20T13:01:06.117Z,184.13
2018-12-20T13:03:12.604Z,193.03
2018-12-20T13:05:19.267Z,162.80
2018-12-20T13:07:26.031Z,158.53
2018-12-20T13:09:32.651Z,177.00
2018-12-20T13:11:39.346Z,159.13
2018-12-20T13:13:46.040Z,164.87
2018-12-20T13:15:52.566Z,166.13
2018-12-20T13:17:59.255Z,149.40
2018-12-20T13:20:06.366Z,141.03
2018-12-20T13:22:12.809Z,162.03
2018-12-20T13:24:19.477Z,246.00
2018-12-20T13:26:26.048Z,219.40
2018-12-20T13:28:32.859Z,199.33
2018-12-20T13:30:39.472Z,186.33
2018-12-20T13:32:46.121Z,199.47
2018-12-20T13:34:52.601Z,185.97
2018-12-20T13:36:59.498Z,225.03
2018-12-20T13:39:07.674Z,189.10
2018-12-20T13:41:14.229Z,224.33
2018-12-20T13:43:20.919Z,217.47
2018-12-20T13:45:27.764Z,230.60
2018-12-20T13:47:34.375Z,233.40
2018-12-20T13:49:40.951Z,256.07
2018-12-20T13:51:47.637Z,249.57
2018-12-20T13:53:54.379Z,208.87
2018-12-20T13:56:01.085Z,200.93
2018-12-20T13:58:07.672Z,207.80
2018-12-20T14:00:17.068Z,197.00
2018-12-20T14:02:23.874Z,194.33
2018-12-20T14:04:30.148Z,185.90
2018-12-20T14:06:36.530Z,213.23
2018-12-20T14:08:43.487Z,198.53
2018-12-20T14:10:50.252Z,206.23
2018-12-20T14:12:56.842Z,196.60
2018-12-20T14:15:03.497Z,196.13
2018-12-20T14:17:10.627Z,217.30
2018-12-20T14:19:17.846Z,230.70
2018-12-20T14:21:26.665Z,235.67
2018-12-20T14:23:33.745Z,232.90
2018-12-20T14:25:40.344Z,235.63
2018-12-20T14:27:46.863Z,239.10
2018-12-20T14:29:53.599Z,214.47
2018-12-20T14:32:00.503Z,240.43
2018-12-20T14:34:06.638Z,242.33
2018-12-20T14:36:13.322Z,239.20
2018-12-20T14:38:19.805Z,233.93
2018-12-20T14:40:26.982Z,263.20
2018-12-20T14:42:33.775Z,225.43
2018-12-20T14:44:40.590Z,237.17
2018-12-20T14:46:47.244Z,260.90
2018-12-20T14:48:54.792Z,249.97
2018-12-20T14:51:01.587Z,218.90
2018-12-20T14:53:17.917Z,210.70
2018-12-20T14:55:26.601Z,241.23
2018-12-20T14:57:33.297Z,208.30
2018-12-20T14:59:47.993Z,228.80
2018-12-20T15:02:01.528Z,222.37
2018-12-20T15:04:15.957Z,174.20
2018-12-20T15:06:30.275Z,202.57
2018-12-20T15:08:43.576Z,193.77
2018-12-20T15:10:56.014Z,190.03
2018-12-20T15:13:09.965Z,219.67
2018-12-20T15:15:22.069Z,199.03
2018-12-20T15:17:37.159Z,214.97
2018-12-20T15:19:45.397Z,207.20
2018-12-20T15:22:00.212Z,214.97
2018-12-20T15:24:07.642Z,219.63
2018-12-20T15:26:14.187Z,231.67
2018-12-20T15:28:23.944Z,202.57
2018-12-20T15:30:40.074Z,225.97
2018-12-20T15:32:54.443Z,221.40
2018-12-20T15:35:06.873Z,228.53
2018-12-20T15:37:18.153Z,215.67
2018-12-20T15:39:36.951Z,226.53
2018-12-20T15:41:46.253Z,231.13
2018-12-20T15:43:57.108Z,233.53
2018-12-20T15:46:04.349Z,234.73
2018-12-20T15:48:11.189Z,239.27
2018-12-20T15:50:22.543Z,223.20
2018-12-20T15:52:34.893Z,226.47
2018-12-20T15:54:48.593Z,217.63
2018-12-20T15:57:00.725Z,240.23
2018-12-20T15:59:10.888Z,235.90
2018-12-20T16:01:22.179Z,239.17
2018-12-20T16:03:32.734Z,257.43
2018-12-20T16:05:39.962Z,237.10
2018-12-20T16:07:51.166Z,250.17
2018-12-20T16:10:05.581Z,232.33
2018-12-20T16:12:19.538Z,222.73
2018-12-20T16:14:31.420Z,207.43
2018-12-20T16:16:43.717Z,180.27
2018-12-20T16:19:04.713Z,193.77
2018-12-20T16:21:07.060Z,182.87
2018-12-20T16:23:18.497Z,218.20
2018-12-20T16:25:27.040Z,202.87
2018-12-20T16:27:38.226Z,214.93
2018-12-20T16:29:51.405Z,228.47
2018-12-20T16:32:07.495Z,221.57
2018-12-20T16:34:22.802Z,224.33
2018-12-20T16:36:36.328Z,223.37
2018-12-20T16:38:48.864Z,231.63
2018-12-20T16:40:58.542Z,222.43
2018-12-20T16:43:10.543Z,227.63
2018-12-20T16:45:24.594Z,227.70
2018-12-20T16:47:36.411Z,225.20
2018-12-20T16:49:51.476Z,234.93
2018-12-20T16:52:05.771Z,233.70
2018-12-20T16:54:23.323Z,244.37
2018-12-20T16:56:32.170Z,238.67
2018-12-20T16:58:43.967Z,252.83
2018-12-20T17:00:54.017Z,250.77
2018-12-20T17:03:02.094Z,245.20
2018-12-20T17:05:13.640Z,230.10
2018-12-20T17:07:24.923Z,242.50
2018-12-20T17:09:36.742Z,245.77
2018-12-20T17:11:45.257Z,227.07
2018-12-20T17:13:57.746Z,249.50
2018-12-20T17:18:29.999Z,282.17
2018-12-20T17:20:41.929Z,273.47
2018-12-20T17:22:54.620Z,271.83
2018-12-20T17:25:05.322Z,266.07
2018-12-20T17:27:18.809Z,283.27
2018-12-20T17:29:30.874Z,273.83
2018-12-20T17:31:40.310Z,275.00
2018-12-20T17:33:55.069Z,272.87
2018-12-20T17:36:01.971Z,271.13
2018-12-20T17:38:10.927Z,278.70
2018-12-20T17:40:22.817Z,261.47
2018-12-20T17:42:30.687Z,275.23
2018-12-20T17:44:37.493Z,276.60
2018-12-20T17:46:44.306Z,263.30
2018-12-20T17:48:55.268Z,278.00
2018-12-20T17:51:02.406Z,282.07
2018-12-20T17:53:09.291Z,266.70
2018-12-20T17:55:19.984Z,263.50
2018-12-20T17:57:26.829Z,265.27
2018-12-20T17:59:33.414Z,260.90
2018-12-20T18:01:40.431Z,247.60
2018-12-20T18:03:47.101Z,238.33
2018-12-20T18:05:54.082Z,241.20
2018-12-20T18:08:03.876Z,238.30
2018-12-20T18:10:16.724Z,208.83
2018-12-20T18:12:28.880Z,220.13
2018-12-20T18:14:39.437Z,211.53
2018-12-20T18:16:46.086Z,212.20
2018-12-20T18:18:52.889Z,230.57
2018-12-20T18:21:02.884Z,238.70
2018-12-20T18:25:26.794Z,242.43
2018-12-20T18:27:34.547Z,245.87
2018-12-20T18:29:45.416Z,245.33
2018-12-20T18:31:55.277Z,250.80
2018-12-20T18:34:07.343Z,275.17
2018-12-20T18:36:14.453Z,271.70
2018-12-20T18:38:24.140Z,281.27
2018-12-20T18:40:36.166Z,278.77
2018-12-20T18:42:48.222Z,287.53
2018-12-20T18:45:02.823Z,280.20
2018-12-20T18:47:14.387Z,267.93
2018-12-20T18:49:21.492Z,297.50
2018-12-20T18:51:29.828Z,299.90
2018-12-20T18:53:45.225Z,296.43
2018-12-20T18:55:52.128Z,289.67
2018-12-20T18:57:58.676Z,302.33
2018-12-20T19:00:05.522Z,279.23
2018-12-20T19:02:12.173Z,307.07
2018-12-20T19:04:18.777Z,285.07
2018-12-20T19:06:25.503Z,266.37
2018-12-20T19:08:32.142Z,265.53
2018-12-20T19:10:38.844Z,254.23
2018-12-20T19:15:29.066Z,199.40
2018-12-20T19:17:35.862Z,231.67
2018-12-20T19:19:43.061Z,227.87
2018-12-20T19:21:59.520Z,230.97
2018-12-20T19:26:36.783Z,247.43
2018-12-20T19:28:43.808Z,235.10
2018-12-20T19:30:50.765Z,233.50
2018-12-20T19:32:58.034Z,246.73
2018-12-20T19:35:05.069Z,257.77
2018-12-20T19:37:18.910Z,256.70
2018-12-20T19:39:26.750Z,267.50
2018-12-20T19:41:33.703Z,261.43
2018-12-20T19:43:47.034Z,253.23
2018-12-20T19:45:54.754Z,258.73
2018-12-20T19:48:01.530Z,255.30
2018-12-20T19:50:13.726Z,244.53
2018-12-20T19:52:25.920Z,256.87
2018-12-20T19:54:48.092Z,249.97
2018-12-20T19:56:55.303Z,265.83
2018-12-20T19:59:02.118Z,273.13
2018-12-20T20:01:08.846Z,260.93
2018-12-20T20:03:15.820Z,263.37
2018-12-20T20:05:27.330Z,263.30
2018-12-20T20:07:34.418Z,259.53
2018-12-20T20:09:40.962Z,272.53
2018-12-20T20:11:47.609Z,258.90
2018-12-20T20:13:54.229Z,264.57
2018-12-20T20:16:00.881Z,282.67
2018-12-20T20:18:07.740Z,273.33
2018-12-20T20:20:14.626Z,279.40
2018-12-20T20:22:22.121Z,278.67
2018-12-20T20:24:28.397Z,274.73
2018-12-20T20:26:35.066Z,274.77
2018-12-20T20:28:41.849Z,284.00
2018-12-20T20:30:48.394Z,267.27
2018-12-20T20:33:02.157Z,268.37
2018-12-20T20:35:09.864Z,241.07
2018-12-20T20:37:16.550Z,233.70
2018-12-20T20:39:23.658Z,231.80
2018-12-20T20:41:30.038Z,223.23
2018-12-20T20:43:36.783Z,232.07
2018-12-20T20:45:43.447Z,244.20
2018-12-20T20:47:50.130Z,236.90
2018-12-20T20:49:57.370Z,211.47
2018-12-20T20:52:04.187Z,232.33
2018-12-20T20:54:10.735Z,249.63
2018-12-20T20:56:17.957Z,243.43
2018-12-20T20:58:24.849Z,266.27
2018-12-20T21:00:31.814Z,263.30
2018-12-20T21:02:38.182Z,265.93
2018-12-20T21:04:45.180Z,260.00
2018-12-20T21:06:51.611Z,269.33
2018-12-20T21:08:58.352Z,287.93
2018-12-20T21:11:05.226Z,281.97
2018-12-20T21:13:11.829Z,264.73
2018-12-20T21:15:18.433Z,290.17
2018-12-20T21:17:25.182Z,291.00
2018-12-20T21:19:32.016Z,305.07
2018-12-20T21:21:38.613Z,288.57
2018-12-20T21:23:45.493Z,273.30
2018-12-20T21:25:51.976Z,266.60
2018-12-20T21:28:05.272Z,293.70
2018-12-20T21:30:19.208Z,275.70
2018-12-20T21:32:26.954Z,274.03
2018-12-20T21:34:33.664Z,278.83
2018-12-20T21:36:40.626Z,297.40
2018-12-20T21:38:47.484Z,285.47
2018-12-20T21:40:54.328Z,290.63
2018-12-20T21:43:00.690Z,290.30
2018-12-20T21:45:08.365Z,303.00
2018-12-20T21:47:15.245Z,288.40
2018-12-20T21:49:21.745Z,295.57
2018-12-20T21:51:28.417Z,293.17
2018-12-20T21:53:35.020Z,308.13
2018-12-20T21:55:41.693Z,288.57
2018-12-20T21:57:49.036Z,306.57
2018-12-20T22:00:01.137Z,318.93
2018-12-20T22:02:04.617Z,282.07
2018-12-20T22:04:11.486Z,265.93
2018-12-20T22:06:19.892Z,270.13
2018-12-20T22:08:27.122Z,247.70
2018-12-20T22:10:34.067Z,225.80
2018-12-20T22:12:40.453Z,194.03
2018-12-20T22:14:47.331Z,192.00
2018-12-20T22:16:54.201Z,234.93
2018-12-20T22:19:00.824Z,252.47
2018-12-20T22:21:08.004Z,260.10
2018-12-20T22:23:14.717Z,261.77
2018-12-20T22:25:20.954Z,267.00
2018-12-20T22:27:27.608Z,261.60
2018-12-20T22:29:34.091Z,264.33
2018-12-20T22:31:40.854Z,263.83
2018-12-20T22:33:47.467Z,263.67
2018-12-20T22:35:54.180Z,249.87
2018-12-20T22:38:00.778Z,268.30
2018-12-20T22:40:08.474Z,255.10
2018-12-20T22:42:15.530Z,265.20
2018-12-20T22:44:22.113Z,235.37
2018-12-20T22:46:29.066Z,242.07
2018-12-20T22:48:35.888Z,240.07
2018-12-20T22:50:42.620Z,257.53
2018-12-20T22:52:49.515Z,228.00
2018-12-20T22:54:56.270Z,267.77
2018-12-20T22:57:03.251Z,269.27
2018-12-20T22:59:09.935Z,278.33
2018-12-20T23:01:16.863Z,277.47
2018-12-20T23:03:23.438Z,284.57
2018-12-20T23:05:30.088Z,278.80
2018-12-20T23:07:36.699Z,266.43
2018-12-20T23:09:43.880Z,274.57
2018-12-20T23:11:50.822Z,284.60
2018-12-20T23:13:58.012Z,277.47
2018-12-20T23:16:04.698Z,268.83
2018-12-20T23:18:11.235Z,293.57
2018-12-20T23:20:17.876Z,249.07
2018-12-20T23:22:24.642Z,246.00
2018-12-20T23:24:31.365Z,220.40
2018-12-20T23:26:38.299Z,200.83
2018-12-20T23:28:44.842Z,194.80
2018-12-20T23:30:51.575Z,207.90
2018-12-20T23:32:58.455Z,214.90
2018-12-20T23:35:05.132Z,200.90
2018-12-20T23:37:11.878Z,226.73
2018-12-20T23:39:18.570Z,240.17
2018-12-20T23:41:25.202Z,236.60
2018-12-20T23:43:31.967Z,251.57
2018-12-20T23:45:38.684Z,242.30
2018-12-20T23:47:45.570Z,272.57
2018-12-20T23:49:52.165Z,240.77
2018-12-20T23:51:58.782Z,253.50
2018-12-20T23:54:05.285Z,265.27
2018-12-20T23:56:12.255Z,246.70
2018-12-20T23:58:18.863Z,252.10
